Time;durP1;ratioP1;P1;durP2;ratioP2;P2;SDS_P1;SDS_P2;PMS_P1;PMS_P2;Temp;Humidity;BMP_temperature;BMP_pressure;BME280_temperature;BME280_humidity;BME280_pressure;Samples;Min_cycle;Max_cycle;Signal;HPM_P1;HPM_P2
2024/01/11 00:01:47;;;;;;;0.10;0.10;;;;;;;-3.08;100.00;100377.53;5055608;28;20717;-51
2024/01/11 00:04:34;;;;;;;0.10;0.10;;;;;;;-3.17;100.00;100384.34;5071088;28;20265;-51
2024/01/11 00:07:20;;;;;;;0.10;0.10;;;;;;;-3.00;100.00;100386.22;5094664;28;20195;-51
2024/01/11 00:10:08;;;;;;;0.10;0.10;;;;;;;-3.13;100.00;100384.34;5095749;28;20241;-51
2024/01/11 00:12:56;;;;;;;0.00;0.00;;;;;;;-3.37;100.00;100379.78;5095443;28;20210;-51
2024/01/11 00:15:43;;;;;;;0.10;0.10;;;;;;;-3.50;100.00;100386.50;5078174;28;20290;-51
2024/01/11 00:18:30;;;;;;;0.10;0.10;;;;;;;-3.14;100.00;100386.09;5075330;28;20207;-51
2024/01/11 00:21:17;;;;;;;0.10;0.10;;;;;;;-3.17;100.00;100393.81;5075235;28;20283;-51
2024/01/11 00:24:04;;;;;;;0.10;0.10;;;;;;;-3.21;100.00;100394.63;5072951;28;20195;-51
2024/01/11 00:26:51;;;;;;;0.10;0.10;;;;;;;-3.42;100.00;100403.00;5075278;28;20196;-51
2024/01/11 00:29:39;;;;;;;0.10;0.10;;;;;;;-3.52;100.00;100401.16;5074927;28;20258;-51
2024/01/11 00:32:27;;;;;;;0.10;0.10;;;;;;;-3.54;100.00;100398.56;5074879;28;20258;-51
2024/01/11 00:35:13;;;;;;;0.10;0.10;;;;;;;-3.69;100.00;100397.47;5074867;28;20742;-51
2024/01/11 00:38:00;;;;;;;0.10;0.10;;;;;;;-3.92;100.00;100395.44;5073633;28;20218;-51
2024/01/11 00:40:47;;;;;;;0.10;0.10;;;;;;;-3.93;100.00;100385.94;5074873;28;20258;-51
2024/01/11 00:43:34;;;;;;;0.10;0.10;;;;;;;-3.91;100.00;100393.72;5074870;28;20204;-51
2024/01/11 00:46:22;;;;;;;0.10;0.10;;;;;;;-4.06;100.00;100391.78;5054821;28;20247;-50
2024/01/11 00:49:10;;;;;;;0.10;0.10;;;;;;;-3.69;100.00;100384.53;5056214;28;20197;-51
2024/01/11 00:51:57;;;;;;;0.10;0.10;;;;;;;-3.11;100.00;100382.66;5053276;28;20697;-51
2024/01/11 00:54:43;;;;;;;0.10;0.10;;;;;;;-3.54;100.00;100376.97;5062902;28;20238;-51
2024/01/11 00:57:30;;;;;;;0.10;0.10;;;;;;;-3.77;100.00;100387.00;5074616;28;20222;-51
2024/01/11 01:00:18;;;;;;;0.10;0.10;;;;;;;-3.30;100.00;100376.38;5074519;28;20187;-51
2024/01/11 01:03:06;;;;;;;0.10;0.10;;;;;;;-3.18;100.00;100372.25;5074511;28;20191;-51
2024/01/11 01:05:53;;;;;;;0.10;0.10;;;;;;;-3.59;100.00;100384.66;5074334;28;20218;-51
2024/01/11 01:08:40;;;;;;;0.10;0.10;;;;;;;-3.38;100.00;100381.47;5073038;28;20223;-51
2024/01/11 01:11:27;;;;;;;0.10;0.10;;;;;;;-3.47;100.00;100386.56;5059118;28;20191;-51
2024/01/11 01:14:14;;;;;;;0.10;0.10;;;;;;;-2.98;100.00;100375.03;5074227;28;20224;-51
2024/01/11 01:17:01;;;;;;;0.10;0.10;;;;;;;-3.13;100.00;100374.88;5074173;28;20195;-51
2024/01/11 01:19:49;;;;;;;0.10;0.10;;;;;;;-3.06;100.00;100379.25;5074103;28;20196;-51
2024/01/11 01:22:36;;;;;;;0.07;0.07;;;;;;;-2.81;100.00;100388.13;5072472;28;20231;-51
2024/01/11 01:25:23;;;;;;;0.10;0.10;;;;;;;-2.99;100.00;100385.34;5073890;28;20217;-51
2024/01/11 01:28:10;;;;;;;0.10;0.10;;;;;;;-3.42;100.00;100384.88;5073854;28;20196;-51
2024/01/11 01:30:57;;;;;;;0.10;0.10;;;;;;;-3.84;100.00;100385.22;5074034;28;20200;-51
2024/01/11 01:33:44;;;;;;;0.10;0.10;;;;;;;-3.15;100.00;100378.28;5070053;28;20218;-51
2024/01/11 01:36:32;;;;;;;0.03;0.03;;;;;;;-3.43;100.00;100383.16;5053627;28;20195;-51
2024/01/11 01:39:19;;;;;;;0.10;0.10;;;;;;;-3.87;100.00;100393.78;5053765;28;20188;-51
2024/01/11 01:42:06;;;;;;;0.10;0.10;;;;;;;-3.87;100.00;100390.31;5053636;28;20192;-51
2024/01/11 01:44:53;;;;;;;0.10;0.10;;;;;;;-3.67;100.00;100382.81;5062412;28;20235;-51
2024/01/11 01:47:41;;;;;;;0.10;0.10;;;;;;;-3.79;100.00;100389.59;5073644;28;20212;-51
2024/01/11 01:50:29;;;;;;;0.10;0.10;;;;;;;-3.86;100.00;100394.66;5073535;28;20191;-51
2024/01/11 01:53:18;;;;;;;0.10;0.10;;;;;;;-3.64;100.00;100395.84;5071737;28;20215;-51
2024/01/11 01:56:06;;;;;;;0.10;0.10;;;;;;;-3.96;100.00;100403.13;5073295;28;20211;-51
2024/01/11 01:58:54;;;;;;;0.07;0.07;;;;;;;-3.92;100.00;100403.22;5073365;28;20268;-51
2024/01/11 02:01:42;;;;;;;0.10;0.10;;;;;;;-3.75;100.00;100398.28;5073197;28;20250;-51
2024/01/11 02:04:28;;;;;;;0.10;0.10;;;;;;;-3.75;100.00;100404.31;5073251;28;20271;-51
2024/01/11 02:07:17;;;;;;;0.10;0.10;;;;;;;-3.60;100.00;100397.59;5071781;28;20187;-51
2024/01/11 02:10:07;;;;;;;0.00;0.00;;;;;;;-4.06;100.00;100407.28;5073109;28;20196;-51
2024/01/11 02:12:54;;;;;;;0.10;0.10;;;;;;;-3.97;100.00;100415.19;5073036;28;20302;-51
2024/01/11 02:15:41;;;;;;;0.10;0.10;;;;;;;-4.18;100.00;100407.13;5073193;28;20666;-51
2024/01/11 02:18:28;;;;;;;0.10;0.10;;;;;;;-3.82;100.00;100404.22;5072926;28;20242;-51
2024/01/11 02:21:16;;;;;;;0.10;0.10;;;;;;;-4.08;100.00;100406.41;5077848;28;20268;-51
2024/01/11 02:24:08;;;;;;;0.10;0.10;;;;;;;-3.62;100.00;100396.72;5091964;28;20230;-51
2024/01/11 02:26:59;;;;;;;0.10;0.10;;;;;;;-4.01;100.00;100400.50;5077254;28;20286;-51
2024/01/11 02:29:46;;;;;;;0.00;0.00;;;;;;;-4.06;100.00;100392.66;5072996;28;20196;-51
2024/01/11 02:32:33;;;;;;;0.10;0.10;;;;;;;-4.11;100.00;100390.84;5072832;28;20705;-51
2024/01/11 02:35:20;;;;;;;0.10;0.10;;;;;;;-4.13;100.00;100387.38;5075259;28;20430;-51
2024/01/11 02:38:07;;;;;;;0.10;0.10;;;;;;;-4.01;100.00;100391.88;5091791;28;20209;-51
2024/01/11 02:40:56;;;;;;;0.10;0.10;;;;;;;-4.05;100.00;100384.06;5093080;28;20288;-51
2024/01/11 02:43:47;;;;;;;0.10;0.10;;;;;;;-3.71;100.00;100381.06;5093050;28;20191;-51
2024/01/11 02:46:34;;;;;;;0.10;0.10;;;;;;;-3.95;100.00;100394.56;5079816;28;20299;-50
2024/01/11 02:49:21;;;;;;;0.10;0.10;;;;;;;-3.88;100.00;100380.81;5072757;28;20239;-51
2024/01/11 02:52:08;;;;;;;0.10;0.10;;;;;;;-3.68;100.00;100371.59;5071310;28;20329;-51
2024/01/11 02:54:55;;;;;;;0.10;0.10;;;;;;;-3.90;100.00;100374.78;5072712;28;20286;-51
2024/01/11 02:57:44;;;;;;;0.10;0.10;;;;;;;-4.09;100.00;100358.13;5067776;28;20194;-51
2024/01/11 03:00:30;;;;;;;0.10;0.10;;;;;;;-4.15;100.00;100368.34;5074200;28;20199;-51
2024/01/11 03:03:17;;;;;;;0.10;0.10;;;;;;;-4.04;100.00;100375.44;5092856;28;20195;-51
2024/01/11 03:06:05;;;;;;;0.10;0.10;;;;;;;-4.11;100.00;100370.16;5084638;28;20399;-51
2024/01/11 03:08:51;;;;;;;0.07;0.07;;;;;;;-3.99;100.00;100385.84;5071341;28;20196;-50
2024/01/11 03:11:38;;;;;;;0.10;0.10;;;;;;;-4.32;100.00;100378.47;5072560;28;20192;-50
2024/01/11 03:14:27;;;;;;;0.10;0.10;;;;;;;-4.11;100.00;100367.56;5072146;28;20234;-51
2024/01/11 03:17:14;;;;;;;0.10;0.10;;;;;;;-4.10;100.00;100365.00;5090054;28;20194;-51
2024/01/11 03:20:00;;;;;;;0.00;0.00;;;;;;;-4.15;100.00;100368.34;5092738;28;20253;-51
2024/01/11 03:22:47;;;;;;;0.10;0.10;;;;;;;-4.16;100.00;100370.06;5075692;28;20221;-51
2024/01/11 03:25:34;;;;;;;0.00;0.00;;;;;;;-4.24;100.00;100361.38;5092540;28;20207;-51
2024/01/11 03:28:21;;;;;;;0.10;0.10;;;;;;;-3.78;100.00;100367.16;5092548;28;20318;-51
2024/01/11 03:31:10;;;;;;;0.10;0.10;;;;;;;-4.07;100.00;100377.97;5092529;28;20194;-51
2024/01/11 03:33:57;;;;;;;0.10;0.10;;;;;;;-4.29;100.00;100378.50;5088721;28;20712;-51
2024/01/11 03:36:44;;;;;;;0.10;0.10;;;;;;;-4.02;100.00;100380.66;5091993;28;20669;-51
2024/01/11 03:39:31;;;;;;;0.00;0.00;;;;;;;-3.87;100.00;100369.63;5092458;28;20187;-51
2024/01/11 03:42:18;;;;;;;0.10;0.10;;;;;;;-4.43;100.00;100367.97;5092484;28;20271;-51
2024/01/11 03:45:06;;;;;;;0.10;0.10;;;;;;;-4.46;100.00;100364.44;5092467;28;20268;-51
2024/01/11 03:47:53;;;;;;;0.10;0.10;;;;;;;-3.61;100.00;100368.25;5072189;28;20207;-51
2024/01/11 03:50:40;;;;;;;0.10;0.10;;;;;;;-4.00;100.00;100371.19;5072211;28;20282;-51
2024/01/11 03:53:27;;;;;;;0.10;0.10;;;;;;;-4.07;100.00;100369.34;5070652;28;20246;-51
2024/01/11 03:56:14;;;;;;;0.10;0.10;;;;;;;-3.91;100.00;100373.91;5080795;28;20330;-51
2024/01/11 03:59:01;;;;;;;0.10;0.10;;;;;;;-3.97;100.00;100371.22;5093511;28;20195;-51
2024/01/11 04:01:48;;;;;;;0.10;0.10;;;;;;;-3.70;100.00;100375.91;5095918;28;20195;-51
2024/01/11 04:04:36;;;;;;;0.10;0.10;;;;;;;-4.23;100.00;100381.19;5095827;28;20206;-51
2024/01/11 04:07:24;;;;;;;0.00;0.00;;;;;;;-4.48;100.00;100382.53;5094629;28;20195;-51
2024/01/11 04:10:10;;;;;;;0.10;0.10;;;;;;;-4.64;100.00;100389.13;5095715;28;20266;-51
2024/01/11 04:12:57;;;;;;;0.10;0.10;;;;;;;-4.30;100.00;100375.91;5095636;28;20195;-51
2024/01/11 04:15:44;;;;;;;0.00;0.00;;;;;;;-4.23;100.00;100381.19;5095514;28;20664;-51
2024/01/11 04:18:31;;;;;;;0.10;0.10;;;;;;;-4.26;100.00;100370.78;5095648;28;20195;-51
2024/01/11 04:21:23;;;;;;;0.10;0.10;;;;;;;-3.00;100.00;100376.72;5095369;28;20222;-51
2024/01/11 04:24:10;;;;;;;0.10;0.10;;;;;;;-4.00;100.00;100388.41;5095084;28;20199;-51
2024/01/11 04:26:57;;;;;;;0.10;0.10;;;;;;;-4.32;100.00;100396.56;5095429;28;20199;-51
2024/01/11 04:29:44;;;;;;;0.10;0.10;;;;;;;-4.16;100.00;100395.06;5095156;28;20190;-51
2024/01/11 04:32:31;;;;;;;0.10;0.10;;;;;;;-4.05;100.00;100398.72;5095295;28;20195;-50
2024/01/11 04:35:18;;;;;;;0.10;0.10;;;;;;;-3.95;100.00;100400.59;5095189;28;20203;-51
2024/01/11 04:38:06;;;;;;;0.00;0.00;;;;;;;-2.72;100.00;100398.59;5093792;28;20195;-51
2024/01/11 04:40:53;;;;;;;0.10;0.10;;;;;;;-3.94;100.00;100410.09;5095134;28;20203;-51
2024/01/11 04:43:40;;;;;;;0.10;0.10;;;;;;;-3.79;100.00;100404.25;5095047;28;20195;-51
2024/01/11 04:46:27;;;;;;;0.10;0.10;;;;;;;-4.26;100.00;100407.00;5094837;28;20191;-51
2024/01/11 04:49:14;;;;;;;0.00;0.00;;;;;;;-4.28;100.00;100405.25;5095042;28;20310;-50
2024/01/11 04:52:01;;;;;;;0.00;0.00;;;;;;;-4.05;100.00;100409.06;5093572;28;20461;-50
2024/01/11 04:54:49;;;;;;;0.10;0.10;;;;;;;-3.73;100.00;100422.47;5094197;28;20214;-51
2024/01/11 04:57:36;;;;;;;0.10;0.10;;;;;;;-4.43;100.00;100435.19;5094499;28;20202;-50
2024/01/11 05:00:23;;;;;;;0.00;0.00;;;;;;;-4.46;100.00;100411.84;5094776;28;20190;-51
2024/01/11 05:03:10;;;;;;;0.10;0.10;;;;;;;-4.59;100.00;100419.38;5094461;28;20186;-50
2024/01/11 05:05:57;;;;;;;0.10;0.10;;;;;;;-4.30;100.00;100418.16;5094571;28;20191;-51
2024/01/11 05:08:44;;;;;;;0.10;0.10;;;;;;;-4.73;100.00;100422.59;5092982;28;20226;-51
2024/01/11 05:11:32;;;;;;;0.10;0.10;;;;;;;-4.63;100.00;100424.50;5094470;28;20191;-51
2024/01/11 05:14:19;;;;;;;0.10;0.10;;;;;;;-4.79;100.00;100412.16;5094511;28;20206;-51
2024/01/11 05:17:08;;;;;;;0.03;0.03;;;;;;;-4.76;100.00;100411.31;5094444;28;20195;-51
2024/01/11 05:19:55;;;;;;;0.00;0.00;;;;;;;-4.53;100.00;100410.03;5094153;28;20194;-51
2024/01/11 05:22:42;;;;;;;0.00;0.00;;;;;;;-4.38;100.00;100422.31;5092642;28;20361;-50
2024/01/11 05:25:31;;;;;;;0.10;0.10;;;;;;;-4.13;100.00;100415.84;5094295;28;20265;-51
2024/01/11 05:28:19;;;;;;;0.10;0.10;;;;;;;-4.01;100.00;100417.72;5073799;28;20266;-51
2024/01/11 05:31:07;;;;;;;0.10;0.10;;;;;;;-4.51;100.00;100421.25;5073920;28;20200;-51
2024/01/11 05:33:53;;;;;;;0.00;0.00;;;;;;;-4.35;100.00;100414.59;5073685;28;20275;-50
2024/01/11 05:36:40;;;;;;;0.10;0.10;;;;;;;-4.63;100.00;100421.06;5084099;28;20316;-51
2024/01/11 05:39:28;;;;;;;0.10;0.10;;;;;;;-4.70;100.00;100430.41;5094099;28;20195;-50
2024/01/11 05:42:14;;;;;;;0.10;0.10;;;;;;;-4.64;100.00;100443.41;5094065;28;20229;-50
2024/01/11 05:45:03;;;;;;;0.10;0.10;;;;;;;-4.34;100.00;100439.66;5093798;28;20673;-51
2024/01/11 05:47:50;;;;;;;0.10;0.10;;;;;;;-4.32;100.00;100432.78;5093933;28;20199;-51
2024/01/11 05:50:37;;;;;;;0.10;0.10;;;;;;;-4.52;100.00;100447.97;5093788;28;20245;-51
2024/01/11 05:53:25;;;;;;;0.10;0.10;;;;;;;-4.64;100.00;100443.41;5092246;28;20195;-51
2024/01/11 05:56:12;;;;;;;0.00;0.00;;;;;;;-4.67;100.00;100451.13;5093577;28;20206;-51
2024/01/11 05:58:59;;;;;;;0.10;0.10;;;;;;;-4.86;100.00;100455.94;5093641;28;20214;-51
2024/01/11 06:01:47;;;;;;;0.10;0.10;;;;;;;-4.92;100.00;100465.31;5093490;28;20199;-50
2024/01/11 06:04:34;;;;;;;0.10;0.10;;;;;;;-4.52;100.00;100466.06;5093642;28;20186;-51
2024/01/11 06:07:21;;;;;;;0.10;0.10;;;;;;;-4.68;100.00;100470.06;5092174;28;20198;-51
2024/01/11 06:10:08;;;;;;;0.10;0.10;;;;;;;-4.48;100.00;100472.13;5093186;28;20191;-51
2024/01/11 06:12:56;;;;;;;0.10;0.10;;;;;;;-4.53;100.00;100469.47;5093420;28;20704;-51
2024/01/11 06:15:43;;;;;;;0.10;0.10;;;;;;;-4.79;100.00;100469.00;5093034;28;20215;-51
2024/01/11 06:18:31;;;;;;;0.10;0.10;;;;;;;-4.81;100.00;100462.06;5093256;28;20199;-51
2024/01/11 06:21:18;;;;;;;0.03;0.03;;;;;;;-4.89;100.00;100477.41;5092320;28;20716;-50
2024/01/11 06:24:05;;;;;;;0.10;0.10;;;;;;;-4.76;100.00;100471.63;5092351;28;20191;-51
2024/01/11 06:26:52;;;;;;;0.10;0.10;;;;;;;-4.84;100.00;100482.66;5093025;28;20681;-50
2024/01/11 06:29:39;;;;;;;0.10;0.10;;;;;;;-5.06;100.00;100478.78;5093200;28;20203;-51
2024/01/11 06:32:26;;;;;;;0.10;0.10;;;;;;;-4.82;100.00;100488.75;5093042;28;20187;-51
2024/01/11 06:35:15;;;;;;;0.10;0.10;;;;;;;-4.66;100.00;100481.28;5092708;28;20226;-51
2024/01/11 06:38:02;;;;;;;0.03;0.03;;;;;;;-4.56;100.00;100474.56;5091892;28;20332;-51
2024/01/11 06:40:49;;;;;;;0.10;0.10;;;;;;;-4.70;100.00;100479.50;5093120;28;20195;-51
2024/01/11 06:43:36;;;;;;;0.07;0.07;;;;;;;-4.94;100.00;100487.63;5093050;28;20193;-51
2024/01/11 06:46:23;;;;;;;0.10;0.10;;;;;;;-4.81;100.00;100483.59;5092453;28;20191;-51
2024/01/11 06:49:11;;;;;;;0.00;0.00;;;;;;;-4.33;100.00;100480.19;5092913;28;20187;-51
2024/01/11 06:51:59;;;;;;;0.10;0.10;;;;;;;-4.75;100.00;100483.69;5091622;28;20639;-51
2024/01/11 06:54:46;;;;;;;0.10;0.10;;;;;;;-4.50;100.00;100497.09;5092707;28;20211;-51
2024/01/11 06:57:33;;;;;;;0.10;0.10;;;;;;;-4.67;100.00;100497.66;5092875;28;20228;-51
2024/01/11 07:00:21;;;;;;;0.10;0.10;;;;;;;-4.46;100.00;100509.22;5092859;28;20194;-51
2024/01/11 07:03:08;;;;;;;0.10;0.10;;;;;;;-4.65;100.00;100506.28;5092934;28;20198;-51
2024/01/11 07:05:55;;;;;;;0.10;0.10;;;;;;;-4.50;100.00;100504.84;5092814;28;20261;-51
2024/01/11 07:08:43;;;;;;;0.10;0.10;;;;;;;-4.52;100.00;100496.19;5091240;28;20202;-51
2024/01/11 07:11:30;;;;;;;0.10;0.10;;;;;;;-4.59;100.00;100495.22;5092727;28;20294;-51
2024/01/11 07:14:17;;;;;;;0.00;0.00;;;;;;;-4.69;100.00;100478.66;5092833;28;20665;-51
2024/01/11 07:17:05;;;;;;;0.10;0.10;;;;;;;-4.56;100.00;100477.16;5092622;28;20198;-51
2024/01/11 07:19:52;;;;;;;0.10;0.10;;;;;;;-4.33;100.00;100475.88;5092721;28;20202;-51
2024/01/11 07:22:39;;;;;;;0.10;0.10;;;;;;;-4.37;100.00;100471.47;5074555;28;20235;-50
2024/01/11 07:25:30;;;;;;;0.10;0.10;;;;;;;-3.93;100.00;100471.34;5072489;28;20319;-51
2024/01/11 07:28:17;;;;;;;0.00;0.00;;;;;;;-4.13;100.00;100476.19;5052491;28;20275;-51
2024/01/11 07:31:04;;;;;;;0.10;0.10;;;;;;;-4.19;100.00;100481.25;5054573;28;20281;-51
2024/01/11 07:33:51;;;;;;;0.10;0.10;;;;;;;-4.79;100.00;100494.84;5054976;28;20272;-51
2024/01/11 07:36:38;;;;;;;0.10;0.10;;;;;;;-4.75;100.00;100500.91;5061819;28;20224;-51
2024/01/11 07:39:25;;;;;;;0.10;0.10;;;;;;;-4.74;100.00;100500.06;5075989;28;20195;-51
2024/01/11 07:42:16;;;;;;;0.10;0.10;;;;;;;-4.65;100.00;100489.91;5076046;28;20271;-51
2024/01/11 07:45:02;;;;;;;0.10;0.10;;;;;;;-4.78;100.00;100500.88;5075725;28;20665;-50
2024/01/11 07:47:49;;;;;;;0.10;0.10;;;;;;;-5.18;100.00;100505.25;5075929;28;20208;-51
2024/01/11 07:50:36;;;;;;;0.07;0.07;;;;;;;-4.89;100.00;100513.59;5075747;28;20200;-50
2024/01/11 07:53:24;;;;;;;0.10;0.10;;;;;;;-4.90;100.00;100502.38;5074477;28;20255;-51
2024/01/11 07:56:11;;;;;;;0.00;0.00;;;;;;;-4.49;100.00;100510.03;5075510;28;20223;-51
2024/01/11 07:58:59;;;;;;;0.10;0.10;;;;;;;-4.19;100.00;100511.44;5075697;28;20196;-51
2024/01/11 08:01:46;;;;;;;0.10;0.10;;;;;;;-4.59;100.00;100515.88;5075695;28;20234;-51
2024/01/11 08:04:33;;;;;;;0.00;0.00;;;;;;;-4.48;100.00;100536.78;5075497;28;20712;-51
2024/01/11 08:07:20;;;;;;;0.10;0.10;;;;;;;-4.53;100.00;100543.59;5074191;28;20222;-51
2024/01/11 08:10:09;;;;;;;0.00;0.00;;;;;;;-4.25;100.00;100542.34;5075360;28;20192;-51
2024/01/11 08:12:55;;;;;;;0.10;0.10;;;;;;;-3.78;100.00;100551.78;5075476;28;20239;-51
2024/01/11 08:15:43;;;;;;;0.10;0.10;;;;;;;-3.74;100.00;100555.31;5075351;28;20365;-50
2024/01/11 08:18:30;;;;;;;0.10;0.10;;;;;;;-3.33;100.00;100539.53;5055086;28;20223;-51
2024/01/11 08:21:17;;;;;;;0.00;0.00;;;;;;;-2.59;100.00;100526.69;5060196;28;20298;-51
2024/01/11 08:24:04;;;;;;;0.10;0.10;;;;;;;-3.06;100.00;100537.34;5074728;28;20234;-51
2024/01/11 08:26:50;;;;;;;0.10;0.10;;;;;;;-2.96;100.00;100536.59;5082507;28;20199;-51
2024/01/11 08:29:37;;;;;;;0.10;0.10;;;;;;;-3.09;100.00;100545.03;5095318;28;20242;-51
2024/01/11 08:32:26;;;;;;;0.10;0.10;;;;;;;-2.96;100.00;100546.97;5095377;28;20194;-50
2024/01/11 08:35:18;;;;;;;0.07;0.07;;;;;;;-2.99;100.00;100533.97;5095290;28;20262;-51
2024/01/11 08:38:04;;;;;;;0.10;0.10;;;;;;;-2.71;100.00;100522.19;5093409;28;20237;-50
2024/01/11 08:40:52;;;;;;;0.10;0.10;;;;;;;-2.61;100.00;100517.97;5095200;28;20194;-52
2024/01/11 08:43:39;;;;;;;0.10;0.10;;;;;;;-2.18;100.00;100502.88;5095037;28;20191;-51
2024/01/11 08:46:26;;;;;;;0.10;0.10;;;;;;;-2.34;100.00;100500.13;5094568;28;20273;-51
2024/01/11 08:49:14;;;;;;;0.10;0.10;;;;;;;-2.10;100.00;100493.44;5095000;28;20202;-51
2024/01/11 08:52:02;;;;;;;0.10;0.10;;;;;;;-1.88;100.00;100497.06;5078400;28;20187;-51
2024/01/11 08:54:49;;;;;;;0.10;0.10;;;;;;;-1.14;100.00;100504.50;5094700;28;20214;-51
2024/01/11 08:57:37;;;;;;;0.10;0.10;;;;;;;-1.29;97.58;100510.44;5094844;28;20202;-51
2024/01/11 09:00:23;;;;;;;0.10;0.10;;;;;;;-1.23;95.23;100509.63;5094741;28;20273;-51
2024/01/11 09:03:11;;;;;;;0.10;0.10;;;;;;;-1.26;95.42;100496.59;5094792;28;20257;-51
2024/01/11 09:06:00;;;;;;;0.10;0.10;;;;;;;-0.98;93.09;100489.81;5094712;28;20242;-51
2024/01/11 09:08:47;;;;;;;0.10;0.10;;;;;;;-0.95;93.11;100498.50;5073022;28;20195;-51
2024/01/11 09:11:34;;;;;;;0.10;0.10;;;;;;;-0.97;91.53;100513.22;5074193;28;20246;-51
2024/01/11 09:14:21;;;;;;;0.10;0.10;;;;;;;-0.56;89.63;100529.88;5074337;28;20182;-51
2024/01/11 09:17:08;;;;;;;0.10;0.10;;;;;;;-0.46;87.26;100516.00;5083135;28;20222;-51
2024/01/11 09:19:55;;;;;;;0.10;0.10;;;;;;;-0.49;87.79;100505.56;5094323;28;20187;-51
2024/01/11 09:22:44;;;;;;;0.10;0.10;;;;;;;0.39;91.92;100494.38;5068024;28;20235;-51
2024/01/11 09:25:31;;;;;;;0.10;0.10;;;;;;;1.54;80.83;100500.03;5074171;28;20195;-51
2024/01/11 09:28:17;;;;;;;0.10;0.10;;;;;;;2.33;72.86;100517.78;5092401;28;20218;-52
2024/01/11 09:31:04;;;;;;;0.00;0.00;;;;;;;3.34;65.76;100522.78;5078863;28;20198;-51
2024/01/11 09:33:51;;;;;;;0.10;0.10;;;;;;;3.89;60.63;100515.94;5094091;28;20202;-52
2024/01/11 09:36:39;;;;;;;0.10;0.10;;;;;;;4.93;56.24;100508.94;5092576;28;20390;-52
2024/01/11 09:39:27;;;;;;;0.10;0.10;;;;;;;5.03;52.46;100494.72;5094074;28;20665;-52
2024/01/11 09:42:14;;;;;;;0.10;0.10;;;;;;;5.12;52.79;100495.41;5094211;28;20194;-52
2024/01/11 09:45:05;;;;;;;0.10;0.10;;;;;;;6.17;49.68;100505.34;5091258;28;20199;-51
2024/01/11 09:47:54;;;;;;;0.10;0.10;;;;;;;6.62;48.09;100484.03;5093526;28;20186;-52
2024/01/11 09:50:41;;;;;;;0.10;0.10;;;;;;;5.68;47.80;100488.03;5078496;28;20199;-52
2024/01/11 09:53:29;;;;;;;0.10;0.10;;;;;;;6.13;47.04;100474.75;5089321;28;20245;-53
2024/01/11 09:56:18;;;;;;;0.10;0.10;;;;;;;6.95;46.69;100462.94;5092879;28;20219;-52
2024/01/11 09:59:09;;;;;;;0.10;0.10;;;;;;;7.46;46.21;100464.06;5092960;28;20191;-52
2024/01/11 10:01:58;;;;;;;0.10;0.10;;;;;;;7.71;44.41;100450.97;5092310;28;20199;-52
2024/01/11 10:04:45;;;;;;;0.10;0.10;;;;;;;8.54;43.65;100438.56;5093219;28;20199;-52
2024/01/11 10:07:33;;;;;;;0.10;0.10;;;;;;;7.86;43.24;100451.41;5089010;28;20206;-52
2024/01/11 10:10:20;;;;;;;0.10;0.10;;;;;;;8.89;42.62;100442.59;5074687;28;20226;-52
2024/01/11 10:13:09;;;;;;;0.10;0.10;;;;;;;8.15;42.75;100429.34;5068089;28;20206;-53
2024/01/11 10:16:06;;;;;;;0.10;0.10;;;;;;;8.80;41.79;100415.66;5065439;28;20199;-53
2024/01/11 10:18:55;;;;;;;0.10;0.10;;;;;;;9.35;40.92;100421.50;5062032;28;20206;-52
2024/01/11 10:21:42;;;;;;;0.10;0.10;;;;;;;9.57;41.00;100421.53;5101914;28;20316;-52
2024/01/11 10:24:29;;;;;;;0.10;0.10;;;;;;;10.92;38.71;100416.72;5112294;28;20190;-52
2024/01/11 10:27:17;;;;;;;0.10;0.10;;;;;;;11.15;37.86;100416.53;5102778;28;20222;-52
2024/01/11 10:30:08;;;;;;;0.10;0.10;;;;;;;11.25;36.10;100412.50;5076219;28;20199;-53
2024/01/11 10:32:58;;;;;;;0.10;0.10;;;;;;;11.96;35.28;100402.03;5101404;28;20345;-53
2024/01/11 10:35:46;;;;;;;0.10;0.10;;;;;;;12.45;35.70;100392.47;5094716;28;20212;-53
2024/01/11 10:38:36;;;;;;;0.10;0.10;;;;;;;11.99;35.98;100380.66;5065461;28;20268;-53
2024/01/11 10:41:26;;;;;;;0.10;0.10;;;;;;;12.25;35.20;100380.19;5082678;28;20194;-53
2024/01/11 10:44:20;;;;;;;0.10;0.10;;;;;;;12.83;34.09;100381.59;5084627;28;20198;-53
2024/01/11 10:47:11;;;;;;;0.10;0.10;;;;;;;13.56;33.77;100388.22;5079347;28;20273;-53
2024/01/11 10:50:01;;;;;;;0.10;0.10;;;;;;;13.67;33.29;100380.47;5092205;28;20195;-53
2024/01/11 10:53:03;;;;;;;0.10;0.10;;;;;;;14.65;31.93;100372.03;5090620;28;20253;-53
2024/01/11 10:55:51;;;;;;;0.10;0.10;;;;;;;13.41;32.56;100368.66;5091671;28;20222;-53
2024/01/11 10:58:40;;;;;;;0.10;0.10;;;;;;;13.39;33.39;100367.00;5091710;28;20190;-53
2024/01/11 11:01:28;;;;;;;0.10;0.10;;;;;;;13.36;33.58;100357.41;5089749;28;20203;-53
2024/01/11 11:04:19;;;;;;;0.10;0.10;;;;;;;13.82;32.62;100362.78;5065813;28;20284;-54
2024/01/11 11:07:11;;;;;;;0.10;0.10;;;;;;;15.31;31.06;100363.41;5088419;28;20747;-53
2024/01/11 11:09:59;;;;;;;0.00;0.00;;;;;;;15.03;30.78;100364.31;5095836;28;20252;-53
2024/01/11 11:12:47;;;;;;;0.10;0.10;;;;;;;14.94;30.89;100364.88;5096054;28;20241;-53
2024/01/11 11:15:36;;;;;;;0.10;0.10;;;;;;;15.13;31.22;100360.09;5081510;28;20217;-54
2024/01/11 11:18:24;;;;;;;0.10;0.10;;;;;;;15.34;30.97;100368.53;5086166;28;20222;-52
2024/01/11 11:21:12;;;;;;;0.00;0.00;;;;;;;15.48;30.50;100359.66;5094393;28;20272;-54
2024/01/11 11:23:59;;;;;;;0.00;0.00;;;;;;;15.09;30.37;100363.06;5089209;28;20191;-54
2024/01/11 11:26:46;;;;;;;0.10;0.10;;;;;;;15.92;30.06;100359.44;5091728;28;20190;-53
2024/01/11 11:29:33;;;;;;;0.10;0.10;;;;;;;17.75;28.47;100350.97;5075570;28;20190;-54
2024/01/11 11:32:36;;;;;;;0.10;0.10;;;;;;;16.18;28.85;100349.66;5074796;28;20235;-53
2024/01/11 11:35:24;;;;;;;0.10;0.10;;;;;;;16.56;28.52;100335.44;5075243;28;20330;-54
2024/01/11 11:38:21;;;;;;;0.10;0.10;;;;;;;17.48;26.99;100337.78;5081116;28;20215;-53
2024/01/11 11:41:08;;;;;;;0.10;0.10;;;;;;;18.06;26.35;100322.72;5095560;28;20232;-53
2024/01/11 11:43:55;;;;;;;0.00;0.00;;;;;;;16.44;27.39;100325.63;5095690;28;20194;-54
2024/01/11 11:46:41;;;;;;;0.10;0.10;;;;;;;17.87;26.36;100315.22;5091436;28;20195;-54
2024/01/11 11:50:00;;;;;;;0.00;0.00;;;;;;;16.84;26.88;100313.00;5075293;28;20188;-54
2024/01/11 11:52:54;;;;;;;0.10;0.10;;;;;;;18.95;25.08;100288.91;5073112;28;20320;-54
2024/01/11 11:55:42;;;;;;;0.10;0.10;;;;;;;20.19;23.83;100284.84;5075022;28;20198;-54
2024/01/11 11:58:30;;;;;;;0.03;0.03;;;;;;;17.55;26.78;100284.56;5084835;28;20313;-54
2024/01/11 12:01:17;;;;;;;0.00;0.00;;;;;;;19.66;23.77;100285.69;5094523;28;20322;-53
2024/01/11 12:04:04;;;;;;;0.00;0.00;;;;;;;21.10;23.48;100279.44;5095055;28;20306;-54
2024/01/11 12:06:51;;;;;;;0.10;0.10;;;;;;;20.81;23.33;100278.50;5089052;28;20203;-54
2024/01/11 12:09:38;;;;;;;0.10;0.10;;;;;;;19.81;23.90;100280.03;5074405;28;20199;-54
2024/01/11 12:12:27;;;;;;;0.00;0.00;;;;;;;20.15;24.14;100286.06;5074648;28;20243;-54
2024/01/11 12:15:14;;;;;;;0.00;0.00;;;;;;;19.03;25.24;100292.69;5073942;28;20196;-54
2024/01/11 12:18:01;;;;;;;0.10;0.10;;;;;;;19.04;25.14;100275.59;5081042;28;20269;-53
2024/01/11 12:20:48;;;;;;;0.10;0.10;;;;;;;18.89;25.58;100274.16;5093217;28;20198;-54
2024/01/11 12:23:35;;;;;;;0.10;0.10;;;;;;;19.31;25.07;100261.75;5077526;28;20191;-54
2024/01/11 12:26:22;;;;;;;0.05;0.05;;;;;;;19.13;25.13;100258.75;5094665;28;20207;-54
2024/01/11 12:29:12;;;;;;;0.08;0.08;;;;;;;19.73;24.95;100256.47;5054391;28;20545;-54
2024/01/11 12:31:59;;;;;;;0.10;0.10;;;;;;;19.86;24.71;100257.13;5054288;28;20200;-54
2024/01/11 12:34:47;;;;;;;0.05;0.05;;;;;;;21.07;23.40;100260.88;5068942;28;20207;-54
2024/01/11 12:37:34;;;;;;;0.00;0.00;;;;;;;20.91;23.74;100251.59;5075187;28;20211;-54
2024/01/11 12:40:21;;;;;;;0.00;0.00;;;;;;;19.46;24.91;100251.53;5094590;28;20270;-54
2024/01/11 12:43:09;;;;;;;0.10;0.10;;;;;;;19.39;25.09;100256.56;5094303;28;20477;-54
2024/01/11 12:45:57;;;;;;;0.00;0.00;;;;;;;20.51;24.78;100245.22;5093876;28;20223;-54
2024/01/11 12:48:44;;;;;;;0.00;0.00;;;;;;;20.23;24.50;100260.22;5076401;28;20321;-54
2024/01/11 12:51:31;;;;;;;0.00;0.00;;;;;;;21.75;23.93;100266.38;5073479;28;20326;-54
2024/01/11 12:54:19;;;;;;;0.00;0.00;;;;;;;21.23;24.17;100272.94;5073817;28;20199;-54